createdAt,value
2017-11-15T00:00:27.399Z,7.03
2017-11-15T00:02:56.166Z,6.65
2017-11-15T00:05:25.051Z,5.37
2017-11-15T00:07:54.640Z,4.18
2017-11-15T00:10:23.511Z,4.18
2017-11-15T00:12:52.369Z,4.10
2017-11-15T00:15:21.258Z,3.30
2017-11-15T00:17:50.251Z,3.75
2017-11-15T00:20:19.318Z,3.50
2017-11-15T00:22:48.086Z,3.35
2017-11-15T00:25:16.839Z,3.25
2017-11-15T00:27:45.629Z,3.00
2017-11-15T00:30:14.367Z,3.67
2017-11-15T00:32:42.687Z,4.95
2017-11-15T00:35:11.311Z,4.28
2017-11-15T00:37:39.931Z,3.87
2017-11-15T00:40:08.524Z,4.10
2017-11-15T00:42:37.184Z,3.35
2017-11-15T00:45:06.054Z,2.62
2017-11-15T00:47:34.673Z,2.87
2017-11-15T00:50:03.543Z,3.55
2017-11-15T00:52:32.299Z,2.87
2017-11-15T00:55:01.862Z,3.62
2017-11-15T00:57:30.650Z,3.05
2017-11-15T00:59:59.412Z,2.58
2017-11-15T01:02:28.207Z,2.15
2017-11-15T01:04:57.014Z,2.28
2017-11-15T01:07:25.840Z,2.80
2017-11-15T01:09:54.679Z,3.28
2017-11-15T01:12:24.434Z,2.37
2017-11-15T01:14:53.199Z,2.62
2017-11-15T01:17:21.957Z,3.40
2017-11-15T01:19:50.731Z,2.92
2017-11-15T01:22:20.222Z,2.45
2017-11-15T01:24:48.984Z,2.83
2017-11-15T01:27:17.753Z,3.62
2017-11-15T01:29:46.300Z,3.03
2017-11-15T01:32:15.835Z,3.92
2017-11-15T01:34:44.582Z,2.40
2017-11-15T01:37:13.353Z,2.75
2017-11-15T01:39:42.075Z,2.25
2017-11-15T01:42:11.664Z,2.72
2017-11-15T01:44:40.214Z,2.97
2017-11-15T01:47:08.794Z,2.70
2017-11-15T01:49:37.751Z,2.78
2017-11-15T01:52:07.268Z,3.53
2017-11-15T01:54:35.960Z,2.85
2017-11-15T01:57:04.553Z,3.17
2017-11-15T01:59:33.140Z,3.92
2017-11-15T02:02:01.875Z,5.15
2017-11-15T02:04:30.837Z,4.55
2017-11-15T02:06:59.764Z,4.05
2017-11-15T02:09:28.488Z,4.70
2017-11-15T02:11:57.733Z,4.65
2017-11-15T02:14:26.172Z,3.67
2017-11-15T02:16:54.933Z,5.60
2017-11-15T02:19:22.976Z,3.50
2017-11-15T02:21:51.065Z,2.70
2017-11-15T02:24:19.139Z,2.28
2017-11-15T02:26:47.967Z,3.20
2017-11-15T02:29:16.074Z,3.37
2017-11-15T02:31:44.846Z,3.00
2017-11-15T02:34:13.257Z,3.92
2017-11-15T02:36:41.343Z,2.90
2017-11-15T02:39:09.450Z,3.00
2017-11-15T02:41:37.927Z,2.30
2017-11-15T02:44:06.723Z,2.20
2017-11-15T02:46:35.199Z,2.45
2017-11-15T02:49:03.644Z,2.42
2017-11-15T02:51:32.133Z,3.28
2017-11-15T02:54:00.552Z,2.80
2017-11-15T02:56:29.354Z,2.65
2017-11-15T02:58:57.551Z,2.08
2017-11-15T03:01:25.712Z,2.67
2017-11-15T03:03:54.169Z,3.28
2017-11-15T03:06:22.654Z,3.12
2017-11-15T03:08:51.529Z,2.78
2017-11-15T03:11:20.341Z,2.55
2017-11-15T03:13:49.555Z,2.15
2017-11-15T03:16:18.171Z,2.90
2017-11-15T03:18:47.168Z,3.10
2017-11-15T03:21:19.471Z,2.20
2017-11-15T03:23:49.669Z,2.60
2017-11-15T03:26:20.007Z,2.33
2017-11-15T03:28:52.232Z,3.00
2017-11-15T03:31:26.777Z,3.33
2017-11-15T04:25:48.147Z,3.45
2017-11-15T04:33:39.424Z,3.30
2017-11-15T04:36:10.930Z,4.20
2017-11-15T04:38:45.910Z,3.05
2017-11-15T04:41:16.311Z,2.90
2017-11-15T04:43:47.411Z,3.00
2017-11-15T04:46:17.366Z,2.55
2017-11-15T04:53:59.613Z,3.10
2017-11-15T04:56:29.891Z,3.05
2017-11-15T05:01:33.503Z,2.42
2017-11-15T05:04:02.508Z,2.90
2017-11-15T05:06:32.843Z,2.37
2017-11-15T05:09:02.003Z,3.08
2017-11-15T05:11:30.809Z,2.28
2017-11-15T05:13:59.617Z,2.95
2017-11-15T05:16:28.732Z,2.83
2017-11-15T05:18:56.815Z,2.92
2017-11-15T05:21:24.991Z,2.65
2017-11-15T05:23:53.936Z,3.67
2017-11-15T05:26:22.322Z,2.95
2017-11-15T05:28:51.117Z,3.53
2017-11-15T05:31:19.930Z,2.92
2017-11-15T05:33:48.721Z,2.50
2017-11-15T05:36:17.512Z,3.00
2017-11-15T05:38:47.250Z,2.60
2017-11-15T05:41:16.075Z,3.45
2017-11-15T05:43:44.867Z,3.08
2017-11-15T05:46:13.784Z,2.12
2017-11-15T05:48:43.823Z,2.70
2017-11-15T05:51:12.664Z,3.08
2017-11-15T05:53:41.789Z,2.80
2017-11-15T05:56:10.727Z,3.53
2017-11-15T05:58:40.593Z,2.15
2017-11-15T06:01:09.535Z,2.45
2017-11-15T06:03:39.944Z,2.75
2017-11-15T06:06:09.760Z,3.08
2017-11-15T06:11:18.515Z,2.78
2017-11-15T06:13:53.289Z,2.58
2017-11-15T06:16:26.833Z,2.45
2017-11-15T06:29:48.581Z,3.83
2017-11-15T06:32:20.774Z,4.00
2017-11-15T06:34:49.600Z,2.97
2017-11-15T06:37:18.399Z,2.70
2017-11-15T06:40:13.635Z,2.80
2017-11-15T06:45:29.395Z,2.62
2017-11-15T06:53:27.122Z,2.15
2017-11-15T06:58:46.247Z,3.78
2017-11-15T07:01:15.877Z,3.53
2017-11-15T07:03:46.320Z,3.20
2017-11-15T07:06:15.495Z,2.75
2017-11-15T07:08:46.749Z,3.92
2017-11-15T07:11:15.536Z,2.87
2017-11-15T07:13:44.406Z,2.67
2017-11-15T07:16:13.261Z,3.30
2017-11-15T07:18:43.086Z,3.03
2017-11-15T07:21:11.870Z,3.67
2017-11-15T07:23:41.624Z,3.08
2017-11-15T07:26:10.366Z,3.33
2017-11-15T07:28:39.364Z,2.97
2017-11-15T07:31:08.940Z,2.55
2017-11-15T07:33:37.844Z,3.10
2017-11-15T07:36:06.611Z,2.42
2017-11-15T07:38:35.422Z,2.72
2017-11-15T07:41:04.556Z,2.70
2017-11-15T07:43:34.093Z,2.50
2017-11-15T07:46:02.950Z,3.12
2017-11-15T07:48:31.823Z,2.00
2017-11-15T07:51:00.675Z,3.22
2017-11-15T07:53:29.257Z,2.40
2017-11-15T07:55:58.707Z,3.78
2017-11-15T07:58:27.491Z,3.25
2017-11-15T08:00:56.622Z,3.12
2017-11-15T08:03:25.538Z,3.35
2017-11-15T08:05:55.191Z,2.70
2017-11-15T08:08:24.079Z,3.00
2017-11-15T08:10:53.515Z,2.55
2017-11-15T08:13:22.615Z,3.25
2017-11-15T08:15:52.833Z,3.20
2017-11-15T08:18:23.973Z,3.30
2017-11-15T08:20:54.982Z,3.90
2017-11-15T08:23:29.502Z,2.87
2017-11-15T08:26:09.621Z,3.60
2017-11-15T16:33:22.508Z,13.05
2017-11-15T16:50:49.493Z,10.82
2017-11-15T16:53:57.670Z,10.73
2017-11-15T17:02:26.540Z,9.05
2017-11-15T17:05:13.242Z,8.80
2017-11-15T17:07:48.314Z,8.30
2017-11-15T17:10:24.747Z,6.93
2017-11-15T17:12:58.231Z,8.40
2017-11-15T17:15:29.538Z,8.00
2017-11-15T17:17:58.576Z,7.03
2017-11-15T17:20:27.200Z,8.75
2017-11-15T17:22:56.603Z,7.00
2017-11-15T17:25:26.411Z,7.10
2017-11-15T17:27:55.342Z,8.13
2017-11-15T17:30:24.318Z,7.37
2017-11-15T17:32:54.154Z,7.05
2017-11-15T17:35:23.212Z,8.00
2017-11-15T17:37:53.125Z,8.40
2017-11-15T17:40:21.958Z,9.45
2017-11-15T17:42:50.872Z,11.65
2017-11-15T17:45:20.077Z,9.75
2017-11-15T17:56:20.070Z,18.92
2017-11-15T17:58:49.620Z,18.58
2017-11-15T18:01:18.555Z,20.62
2017-11-15T18:03:47.359Z,20.35
2017-11-15T18:06:17.043Z,19.85
2017-11-15T18:08:45.931Z,16.00
2017-11-15T18:11:14.669Z,19.40
2017-11-15T18:13:43.462Z,15.50
2017-11-15T18:16:12.259Z,18.17
2017-11-15T18:18:41.069Z,18.25
2017-11-15T18:21:09.876Z,18.70
2017-11-15T18:23:38.665Z,15.38
2017-11-15T18:26:07.496Z,14.70
2017-11-15T18:28:36.304Z,14.57
2017-11-15T18:31:07.100Z,13.00
2017-11-15T18:33:35.905Z,10.77
2017-11-15T18:36:05.245Z,9.40
2017-11-15T18:38:34.070Z,10.45
2017-11-15T18:41:03.738Z,9.75
2017-11-15T18:43:32.494Z,10.50
2017-11-15T18:46:02.121Z,10.00
2017-11-15T18:48:30.878Z,9.23
2017-11-15T18:50:59.636Z,11.50
2017-11-15T18:53:29.730Z,8.90
2017-11-15T18:55:58.506Z,9.27
2017-11-15T18:58:29.464Z,8.73
2017-11-15T19:00:58.303Z,8.25
2017-11-15T19:03:27.023Z,8.18
2017-11-15T19:05:55.773Z,8.70
2017-11-15T19:08:24.629Z,8.23
2017-11-15T19:10:53.629Z,7.40
2017-11-15T19:13:22.395Z,7.15
2017-11-15T19:15:51.217Z,8.50
2017-11-15T19:18:19.947Z,6.80
2017-11-15T19:20:48.738Z,6.82
2017-11-15T19:23:17.524Z,6.20
2017-11-15T19:25:46.271Z,5.70
2017-11-15T19:28:15.063Z,7.30
2017-11-15T19:30:43.885Z,6.53
2017-11-15T19:33:12.913Z,7.40
2017-11-15T19:35:42.643Z,6.80
2017-11-15T19:38:11.423Z,6.10
2017-11-15T19:40:40.207Z,5.43
2017-11-15T19:43:08.968Z,6.45
2017-11-15T19:45:37.787Z,6.85
2017-11-15T19:48:06.918Z,6.30
2017-11-15T19:50:35.614Z,6.55
2017-11-15T19:53:04.507Z,5.12
2017-11-15T19:55:33.358Z,7.12
2017-11-15T19:58:02.269Z,7.57
2017-11-15T20:00:31.066Z,5.45
2017-11-15T20:02:59.862Z,7.15
2017-11-15T20:05:28.812Z,7.18
2017-11-15T20:07:57.811Z,5.25
2017-11-15T20:10:27.476Z,5.43
2017-11-15T20:12:58.016Z,6.00
2017-11-15T20:15:28.439Z,4.82
2017-11-15T20:17:57.163Z,5.32
2017-11-15T20:20:29.586Z,5.55
2017-11-15T20:23:01.104Z,6.43
2017-11-15T20:25:31.968Z,6.00
2017-11-15T20:28:02.865Z,6.80
2017-11-15T20:30:31.728Z,6.90
2017-11-15T20:33:04.361Z,5.53
2017-11-15T20:35:36.987Z,7.20
2017-11-15T20:38:08.281Z,6.25
2017-11-15T20:40:37.429Z,7.12
2017-11-15T20:45:47.105Z,7.28
2017-11-15T20:51:11.096Z,6.90
2017-11-15T20:53:42.502Z,8.02
2017-11-15T20:56:20.256Z,9.18
2017-11-15T20:58:51.504Z,7.87
2017-11-15T21:01:25.244Z,8.05
2017-11-15T21:03:55.065Z,7.45
2017-11-15T21:06:25.116Z,6.90
2017-11-15T21:08:54.371Z,6.75
2017-11-15T21:11:29.111Z,7.25
2017-11-15T21:13:58.536Z,6.62
2017-11-15T21:16:27.669Z,6.55
2017-11-15T21:18:59.184Z,8.35
2017-11-15T21:21:31.079Z,7.10
2017-11-15T21:24:00.655Z,7.22
2017-11-15T21:26:31.641Z,7.15
2017-11-15T21:29:03.258Z,7.60
2017-11-15T21:31:36.099Z,7.85
2017-11-15T21:34:06.270Z,7.80
2017-11-15T21:36:37.638Z,7.03
2017-11-15T21:39:08.787Z,8.77
2017-11-15T21:41:39.092Z,7.57
2017-11-15T21:44:11.317Z,8.55
2017-11-15T21:46:44.993Z,8.43
2017-11-15T21:49:13.569Z,7.35
2017-11-15T21:51:42.072Z,7.00
2017-11-15T21:54:11.385Z,7.37
2017-11-15T21:56:40.071Z,7.03
2017-11-15T21:59:08.963Z,7.70
2017-11-15T22:01:37.341Z,7.68
2017-11-15T22:04:06.264Z,5.25
2017-11-15T22:06:35.122Z,5.28
2017-11-15T22:09:03.175Z,6.18
2017-11-15T22:11:32.039Z,5.40
2017-11-15T22:14:00.989Z,5.07
2017-11-15T22:16:29.945Z,5.70
2017-11-15T22:18:58.786Z,5.57
2017-11-15T22:21:27.637Z,6.97
2017-11-15T22:23:56.660Z,7.35
2017-11-15T22:26:25.454Z,5.60
2017-11-15T22:28:54.247Z,6.10
2017-11-15T22:31:23.058Z,6.53
2017-11-15T22:33:51.854Z,5.43
2017-11-15T22:36:20.802Z,6.05
2017-11-15T22:38:50.389Z,5.70
2017-11-15T22:41:19.250Z,5.50
2017-11-15T22:43:48.210Z,5.80
2017-11-15T22:46:17.065Z,6.90
2017-11-15T22:48:45.894Z,6.07
2017-11-15T22:51:14.696Z,5.90
2017-11-15T22:53:43.559Z,5.10
2017-11-15T22:56:12.397Z,5.70
2017-11-15T22:58:41.182Z,5.82
2017-11-15T23:01:09.975Z,5.20
2017-11-15T23:03:38.871Z,6.25
2017-11-15T23:06:07.690Z,7.10
2017-11-15T23:08:43.877Z,6.30
2017-11-15T23:11:16.428Z,5.45
2017-11-15T23:19:03.468Z,4.68
2017-11-15T23:21:37.432Z,5.55
2017-11-15T23:32:12.730Z,4.70
2017-11-15T23:40:20.967Z,4.62
2017-11-15T23:51:11.985Z,5.32
